PWSweather.com
Personal Weather Stations
Station Observations
IONTARIO88
Lincoln, ON L0R

Lincoln, ON L0R

Lat: 43.1763563, Lon: -79.4719525

Elevation: 297

Station Type: Davis Vantage Pro 2 Plus

http://www.beamsvillewx.ca

High Low Average
Temperature 82.2°F27.9°C 62.8°F17.1°C 70.8°F21.6°C
Dew Point 66.8°F19.3°C 60.0°F15.6°C 63.7°F17.6°C
Winds 9.0 mph 14.5 kmh Calm Calm 3.0 mph W4.8 kmh W
Wind Gusts 23.0 mph37.0 kmh -- 8.0 mph12.9 kmh
Humidity 93% 52% 79%
Pressure 29.92 in1013.2 mb 29.80 in1009.1 mb -
Precipitation 0.87 in22.1 mm - -
Hour Temp Dew Point Humidity Winds Wind Gusts Pressure Precip Precip Rate Daily Precip Total
12:00 AM 70.3°F21.3°C 64.9°F18.3°C 83% 3.0 mph WSW4.8 kmh WSW 9.0 mph14.5 kmh 29.84 in1010.5 mb 0.00 in0.0 mm 0.00 in0.0 mm 0.00 in0.0 mm
12:15 AM 65.8°F18.8°C 60.5°F15.8°C 83% 9.0 mph W14.5 kmh W 21.0 mph33.8 kmh 29.87 in1011.5 mb 0.32 in8.1 mm 1.28 in32.5 mm 0.32 in8.1 mm
12:30 AM 63.0°F17.2°C 60.3°F15.7°C 91% 3.0 mph WSW4.8 kmh WSW 10.0 mph16.1 kmh 29.85 in1010.8 mb 0.65 in16.5 mm 1.32 in33.5 mm 0.65 in16.5 mm
12:45 AM 62.6°F17.0°C 60.5°F15.8°C 93% 1.0 mph SW1.6 kmh SW 5.0 mph8.0 kmh 29.83 in1010.2 mb 0.67 in17.0 mm 0.08 in2.0 mm 0.67 in17.0 mm
01:00 AM 62.8°F17.1°C 60.7°F15.9°C 93% 1.0 mph SW1.6 kmh SW 5.0 mph8.0 kmh 29.82 in1009.8 mb 0.68 in17.3 mm 0.01 in0.3 mm 0.68 in17.3 mm
01:15 AM 62.8°F17.1°C 60.7°F15.9°C 93% 2.0 mph SW3.2 kmh SW 7.0 mph11.3 kmh 29.82 in1009.8 mb 0.31 in7.9 mm 0.00 in0.0 mm 0.68 in17.3 mm
01:30 AM 63.3°F17.4°C 61.0°F16.1°C 92% 6.0 mph WSW9.7 kmh WSW 13.0 mph20.9 kmh 29.82 in1009.8 mb 0.03 in0.8 mm 0.00 in0.0 mm 0.69 in17.5 mm
01:45 AM 63.9°F17.7°C 60.9°F16.1°C 90% 5.0 mph SW8.0 kmh SW 13.0 mph20.9 kmh 29.82 in1009.8 mb 0.02 in0.5 mm 0.00 in0.0 mm 0.69 in17.5 mm
02:00 AM 64.4°F18.0°C 61.4°F16.3°C 90% 3.0 mph SW4.8 kmh SW 12.0 mph19.3 kmh 29.82 in1009.8 mb 0.01 in0.3 mm 0.00 in0.0 mm 0.69 in17.5 mm
02:15 AM 65.1°F18.4°C 61.8°F16.6°C 89% 4.0 mph SW6.4 kmh SW 8.0 mph12.9 kmh 29.81 in1009.5 mb 0.01 in0.3 mm 0.00 in0.0 mm 0.69 in17.5 mm
02:30 AM 64.9°F18.3°C 61.9°F16.6°C 90% 3.0 mph SW4.8 kmh SW 7.0 mph11.3 kmh 29.80 in1009.1 mb 0.00 in0.0 mm 0.00 in0.0 mm 0.69 in17.5 mm
02:45 AM 64.8°F18.2°C 61.4°F16.3°C 89% 4.0 mph SW6.4 kmh SW 11.0 mph17.7 kmh 29.80 in1009.1 mb 0.00 in0.0 mm 0.00 in0.0 mm 0.69 in17.5 mm
03:00 AM 65.1°F18.4°C 62.1°F16.7°C 90% 4.0 mph SW6.4 kmh SW 10.0 mph16.1 kmh 29.80 in1009.1 mb 0.01 in0.3 mm 0.01 in0.3 mm 0.69 in17.5 mm
03:15 AM 65.8°F18.8°C 62.5°F16.9°C 89% 3.0 mph SW4.8 kmh SW 9.0 mph14.5 kmh 29.81 in1009.5 mb 0.01 in0.3 mm 0.00 in0.0 mm 0.69 in17.5 mm
03:30 AM 66.4°F19.1°C 62.7°F17.1°C 88% 3.0 mph SW4.8 kmh SW 8.0 mph12.9 kmh 29.80 in1009.1 mb 0.01 in0.3 mm 0.00 in0.0 mm 0.69 in17.5 mm
03:45 AM 66.6°F19.2°C 62.6°F17.0°C 87% 4.0 mph SW6.4 kmh SW 8.0 mph12.9 kmh 29.80 in1009.1 mb 0.01 in0.3 mm 0.00 in0.0 mm 0.69 in17.5 mm
04:00 AM 66.7°F19.3°C 62.4°F16.9°C 86% 3.0 mph SSW4.8 kmh SSW 7.0 mph11.3 kmh 29.80 in1009.1 mb 0.00 in0.0 mm 0.00 in0.0 mm 0.69 in17.5 mm
04:15 AM 66.7°F19.3°C 62.7°F17.1°C 87% 2.0 mph SSW3.2 kmh SSW 7.0 mph11.3 kmh 29.81 in1009.5 mb 0.00 in0.0 mm 0.00 in0.0 mm 0.69 in17.5 mm
04:30 AM 66.4°F19.1°C 62.4°F16.9°C 87% 2.0 mph SSW3.2 kmh SSW 8.0 mph12.9 kmh 29.81 in1009.5 mb 0.00 in0.0 mm 0.00 in0.0 mm 0.69 in17.5 mm
04:45 AM 66.0°F18.9°C 62.4°F16.9°C 88% 3.0 mph SW4.8 kmh SW 7.0 mph11.3 kmh 29.81 in1009.5 mb 0.00 in0.0 mm 0.00 in0.0 mm 0.69 in17.5 mm
05:00 AM 66.0°F18.9°C 62.7°F17.1°C 89% 4.0 mph SW6.4 kmh SW 10.0 mph16.1 kmh 29.81 in1009.5 mb 0.00 in0.0 mm 0.00 in0.0 mm 0.69 in17.5 mm
05:15 AM 66.2°F19.0°C 62.9°F17.2°C 89% 4.0 mph SW6.4 kmh SW 11.0 mph17.7 kmh 29.81 in1009.5 mb 0.00 in0.0 mm 0.00 in0.0 mm 0.69 in17.5 mm
05:30 AM 66.0°F18.9°C 62.7°F17.1°C 89% 4.0 mph SW6.4 kmh SW 13.0 mph20.9 kmh 29.81 in1009.5 mb 0.00 in0.0 mm 0.00 in0.0 mm 0.69 in17.5 mm
05:45 AM 66.0°F18.9°C 62.7°F17.1°C 89% 3.0 mph SW4.8 kmh SW 9.0 mph14.5 kmh 29.81 in1009.5 mb 0.00 in0.0 mm 0.00 in0.0 mm 0.69 in17.5 mm
06:00 AM 66.0°F18.9°C 62.7°F17.1°C 89% 2.0 mph SW3.2 kmh SW 9.0 mph14.5 kmh 29.81 in1009.5 mb 0.00 in0.0 mm 0.00 in0.0 mm 0.69 in17.5 mm
06:15 AM 66.2°F19.0°C 62.9°F17.2°C 89% 3.0 mph SW4.8 kmh SW 10.0 mph16.1 kmh 29.82 in1009.8 mb 0.00 in0.0 mm 0.00 in0.0 mm 0.69 in17.5 mm
06:30 AM 66.6°F19.2°C 63.2°F17.3°C 89% 2.0 mph WSW3.2 kmh WSW 6.0 mph9.7 kmh 29.83 in1010.2 mb 0.00 in0.0 mm 0.00 in0.0 mm 0.69 in17.5 mm
06:45 AM 65.8°F18.8°C 62.8°F17.1°C 90% 1.0 mph W1.6 kmh W 5.0 mph8.0 kmh 29.83 in1010.2 mb 0.00 in0.0 mm 0.00 in0.0 mm 0.69 in17.5 mm
07:00 AM 65.7°F18.7°C 62.6°F17.0°C 90% Calm Calm 3.0 mph4.8 kmh 29.83 in1010.2 mb 0.00 in0.0 mm 0.00 in0.0 mm 0.69 in17.5 mm
07:15 AM 65.8°F18.8°C 63.1°F17.3°C 91% Calm Calm -- 29.84 in1010.5 mb 0.00 in0.0 mm 0.00 in0.0 mm 0.69 in17.5 mm
07:30 AM 65.8°F18.8°C 63.1°F17.3°C 91% Calm Calm 2.0 mph3.2 kmh 29.84 in1010.5 mb 0.00 in0.0 mm 0.00 in0.0 mm 0.69 in17.5 mm
07:45 AM 66.6°F19.2°C 63.9°F17.7°C 91% 2.0 mph W3.2 kmh W 6.0 mph9.7 kmh 29.84 in1010.5 mb 0.00 in0.0 mm 0.00 in0.0 mm 0.69 in17.5 mm
08:00 AM 66.9°F19.4°C 64.2°F17.9°C 91% 4.0 mph NW6.4 kmh NW 8.0 mph12.9 kmh 29.84 in1010.5 mb 0.00 in0.0 mm 0.00 in0.0 mm 0.69 in17.5 mm
08:15 AM 66.9°F19.4°C 64.2°F17.9°C 91% 1.0 mph W1.6 kmh W 5.0 mph8.0 kmh 29.85 in1010.8 mb 0.00 in0.0 mm 0.00 in0.0 mm 0.69 in17.5 mm
08:30 AM 66.9°F19.4°C 64.2°F17.9°C 91% Calm Calm 2.0 mph3.2 kmh 29.85 in1010.8 mb 0.00 in0.0 mm 0.00 in0.0 mm 0.69 in17.5 mm
08:45 AM 68.2°F20.1°C 65.1°F18.4°C 90% 2.0 mph WSW3.2 kmh WSW 6.0 mph9.7 kmh 29.85 in1010.8 mb 0.00 in0.0 mm 0.00 in0.0 mm 0.69 in17.5 mm
09:00 AM 69.1°F20.6°C 65.4°F18.6°C 88% 1.0 mph WSW1.6 kmh WSW 5.0 mph8.0 kmh 29.85 in1010.8 mb 0.00 in0.0 mm 0.00 in0.0 mm 0.69 in17.5 mm
09:15 AM 69.6°F20.9°C 65.2°F18.4°C 86% 3.0 mph NW4.8 kmh NW 6.0 mph9.7 kmh 29.85 in1010.8 mb 0.00 in0.0 mm 0.00 in0.0 mm 0.69 in17.5 mm
09:30 AM 70.3°F21.3°C 64.6°F18.1°C 82% 3.0 mph NNW4.8 kmh NNW 8.0 mph12.9 kmh 29.84 in1010.5 mb 0.00 in0.0 mm 0.00 in0.0 mm 0.69 in17.5 mm
09:45 AM 70.7°F21.5°C 64.6°F18.1°C 81% 4.0 mph N6.4 kmh N 7.0 mph11.3 kmh 29.85 in1010.8 mb 0.00 in0.0 mm 0.00 in0.0 mm 0.69 in17.5 mm
10:00 AM 71.4°F21.9°C 64.9°F18.3°C 80% 2.0 mph NNW3.2 kmh NNW 5.0 mph8.0 kmh 29.84 in1010.5 mb 0.00 in0.0 mm 0.00 in0.0 mm 0.69 in17.5 mm
10:15 AM 72.1°F22.3°C 64.9°F18.3°C 78% 2.0 mph NNW3.2 kmh NNW 5.0 mph8.0 kmh 29.85 in1010.8 mb 0.00 in0.0 mm 0.00 in0.0 mm 0.69 in17.5 mm
10:30 AM 72.1°F22.3°C 64.9°F18.3°C 78% 3.0 mph N4.8 kmh N 8.0 mph12.9 kmh 29.85 in1010.8 mb 0.00 in0.0 mm 0.00 in0.0 mm 0.69 in17.5 mm
10:45 AM 72.7°F22.6°C 65.4°F18.6°C 78% 2.0 mph N3.2 kmh N 7.0 mph11.3 kmh 29.84 in1010.5 mb 0.00 in0.0 mm 0.00 in0.0 mm 0.69 in17.5 mm
11:00 AM 72.5°F22.5°C 65.2°F18.4°C 78% 3.0 mph N4.8 kmh N 5.0 mph8.0 kmh 29.84 in1010.5 mb 0.00 in0.0 mm 0.00 in0.0 mm 0.69 in17.5 mm
11:15 AM 72.7°F22.6°C 65.4°F18.6°C 78% 3.0 mph N4.8 kmh N 7.0 mph11.3 kmh 29.84 in1010.5 mb 0.00 in0.0 mm 0.00 in0.0 mm 0.69 in17.5 mm
11:30 AM 73.0°F22.8°C 65.0°F18.3°C 76% 3.0 mph N4.8 kmh N 5.0 mph8.0 kmh 29.84 in1010.5 mb 0.00 in0.0 mm 0.00 in0.0 mm 0.69 in17.5 mm
11:45 AM 73.2°F22.9°C 66.7°F19.3°C 80% 1.0 mph N1.6 kmh N 4.0 mph6.4 kmh 29.83 in1010.2 mb 0.00 in0.0 mm 0.00 in0.0 mm 0.69 in17.5 mm
12:00 PM 74.5°F23.6°C 65.6°F18.7°C 74% 4.0 mph N6.4 kmh N 9.0 mph14.5 kmh 29.83 in1010.2 mb 0.00 in0.0 mm 0.00 in0.0 mm 0.69 in17.5 mm
12:15 PM 74.5°F23.6°C 66.8°F19.3°C 77% 2.0 mph N3.2 kmh N 5.0 mph8.0 kmh 29.83 in1010.2 mb 0.00 in0.0 mm 0.00 in0.0 mm 0.69 in17.5 mm
12:30 PM 76.1°F24.5°C 66.4°F19.1°C 72% 3.0 mph N4.8 kmh N 8.0 mph12.9 kmh 29.83 in1010.2 mb 0.00 in0.0 mm 0.00 in0.0 mm 0.69 in17.5 mm
12:45 PM 77.2°F25.1°C 66.2°F19.0°C 69% 2.0 mph NNW3.2 kmh NNW 6.0 mph9.7 kmh 29.83 in1010.2 mb 0.00 in0.0 mm 0.00 in0.0 mm 0.69 in17.5 mm
01:00 PM 78.1°F25.6°C 64.9°F18.3°C 64% 4.0 mph WNW6.4 kmh WNW 11.0 mph17.7 kmh 29.83 in1010.2 mb 0.00 in0.0 mm 0.00 in0.0 mm 0.69 in17.5 mm
01:15 PM 77.4°F25.2°C 65.1°F18.4°C 66% 3.0 mph W4.8 kmh W 8.0 mph12.9 kmh 29.82 in1009.8 mb 0.00 in0.0 mm 0.00 in0.0 mm 0.69 in17.5 mm
01:30 PM 79.0°F26.1°C 65.8°F18.8°C 64% 4.0 mph W6.4 kmh W 10.0 mph16.1 kmh 29.82 in1009.8 mb 0.00 in0.0 mm 0.00 in0.0 mm 0.69 in17.5 mm
01:45 PM 79.5°F26.4°C 64.4°F18.0°C 60% 5.0 mph WSW8.0 kmh WSW 10.0 mph16.1 kmh 29.82 in1009.8 mb 0.00 in0.0 mm 0.00 in0.0 mm 0.69 in17.5 mm
02:00 PM 79.9°F26.6°C 63.8°F17.7°C 58% 6.0 mph WSW9.7 kmh WSW 12.0 mph19.3 kmh 29.82 in1009.8 mb 0.00 in0.0 mm 0.00 in0.0 mm 0.69 in17.5 mm
02:15 PM 80.8°F27.1°C 64.1°F17.8°C 57% 6.0 mph W9.7 kmh W 12.0 mph19.3 kmh 29.82 in1009.8 mb 0.00 in0.0 mm 0.00 in0.0 mm 0.69 in17.5 mm
02:30 PM 80.8°F27.1°C 63.1°F17.3°C 55% 6.0 mph WNW9.7 kmh WNW 12.0 mph19.3 kmh 29.82 in1009.8 mb 0.00 in0.0 mm 0.00 in0.0 mm 0.69 in17.5 mm
02:45 PM 79.7°F26.5°C 63.6°F17.6°C 58% 5.0 mph WNW8.0 kmh WNW 12.0 mph19.3 kmh 29.82 in1009.8 mb 0.00 in0.0 mm 0.00 in0.0 mm 0.69 in17.5 mm
03:00 PM 79.2°F26.2°C 65.0°F18.3°C 62% 3.0 mph WSW4.8 kmh WSW 10.0 mph16.1 kmh 29.82 in1009.8 mb 0.00 in0.0 mm 0.00 in0.0 mm 0.69 in17.5 mm
03:15 PM 77.2°F25.1°C 64.9°F18.3°C 66% 5.0 mph SW8.0 kmh SW 12.0 mph19.3 kmh 29.82 in1009.8 mb 0.00 in0.0 mm 0.00 in0.0 mm 0.69 in17.5 mm
03:30 PM 77.9°F25.5°C 65.2°F18.4°C 65% 5.0 mph SW8.0 kmh SW 15.0 mph24.1 kmh 29.82 in1009.8 mb 0.00 in0.0 mm 0.00 in0.0 mm 0.69 in17.5 mm
03:45 PM 80.1°F26.7°C 65.4°F18.6°C 61% 6.0 mph WSW9.7 kmh WSW 14.0 mph22.5 kmh 29.82 in1009.8 mb 0.00 in0.0 mm 0.00 in0.0 mm 0.69 in17.5 mm
04:00 PM 80.1°F26.7°C 64.4°F18.0°C 59% 5.0 mph SW8.0 kmh SW 14.0 mph22.5 kmh 29.81 in1009.5 mb 0.00 in0.0 mm 0.00 in0.0 mm 0.69 in17.5 mm
04:15 PM 80.8°F27.1°C 65.1°F18.4°C 59% 5.0 mph W8.0 kmh W 10.0 mph16.1 kmh 29.82 in1009.8 mb 0.00 in0.0 mm 0.00 in0.0 mm 0.69 in17.5 mm
04:30 PM 82.2°F27.9°C 62.8°F17.1°C 52% 7.0 mph W11.3 kmh W 13.0 mph20.9 kmh 29.82 in1009.8 mb 0.00 in0.0 mm 0.00 in0.0 mm 0.69 in17.5 mm
04:45 PM 75.2°F24.0°C 64.7°F18.2°C 70% 9.0 mph NW14.5 kmh NW 23.0 mph37.0 kmh 29.84 in1010.5 mb 0.01 in0.3 mm 0.04 in1.0 mm 0.70 in17.8 mm
05:00 PM 69.4°F20.8°C 65.7°F18.7°C 88% 3.0 mph NNW4.8 kmh NNW 7.0 mph11.3 kmh 29.84 in1010.5 mb 0.17 in4.3 mm 0.21 in5.3 mm 0.86 in21.8 mm
05:15 PM 70.5°F21.4°C 66.5°F19.2°C 87% 4.0 mph WNW6.4 kmh WNW 7.0 mph11.3 kmh 29.83 in1010.2 mb 0.17 in4.3 mm 0.00 in0.0 mm 0.87 in22.1 mm
05:30 PM 70.2°F21.2°C 65.1°F18.4°C 84% 3.0 mph NW4.8 kmh NW 7.0 mph11.3 kmh 29.83 in1010.2 mb 0.17 in4.3 mm 0.00 in0.0 mm 0.87 in22.1 mm
05:45 PM 70.9°F21.6°C 66.8°F19.3°C 87% Calm Calm 3.0 mph4.8 kmh 29.83 in1010.2 mb 0.17 in4.3 mm 0.00 in0.0 mm 0.87 in22.1 mm
06:00 PM 72.3°F22.4°C 66.5°F19.2°C 82% 2.0 mph NW3.2 kmh NW 8.0 mph12.9 kmh 29.82 in1009.8 mb 0.01 in0.3 mm 0.00 in0.0 mm 0.87 in22.1 mm
06:15 PM 75.0°F23.9°C 66.6°F19.2°C 75% 4.0 mph NW6.4 kmh NW 9.0 mph14.5 kmh 29.82 in1009.8 mb 0.01 in0.3 mm 0.00 in0.0 mm 0.87 in22.1 mm
06:30 PM 75.9°F24.4°C 65.0°F18.3°C 69% 5.0 mph NW8.0 kmh NW 12.0 mph19.3 kmh 29.83 in1010.2 mb 0.01 in0.3 mm 0.00 in0.0 mm 0.87 in22.1 mm
06:45 PM 76.5°F24.7°C 64.3°F17.9°C 66% 5.0 mph NW8.0 kmh NW 13.0 mph20.9 kmh 29.83 in1010.2 mb 0.01 in0.3 mm 0.00 in0.0 mm 0.87 in22.1 mm
07:00 PM 75.0°F23.9°C 63.7°F17.6°C 68% 5.0 mph WNW8.0 kmh WNW 10.0 mph16.1 kmh 29.83 in1010.2 mb 0.01 in0.3 mm 0.00 in0.0 mm 0.87 in22.1 mm
07:15 PM 74.3°F23.5°C 63.5°F17.5°C 69% 3.0 mph NW4.8 kmh NW 8.0 mph12.9 kmh 29.84 in1010.5 mb 0.00 in0.0 mm 0.00 in0.0 mm 0.87 in22.1 mm
07:30 PM 73.8°F23.2°C 62.5°F16.9°C 68% 4.0 mph WNW6.4 kmh WNW 8.0 mph12.9 kmh 29.84 in1010.5 mb 0.00 in0.0 mm 0.00 in0.0 mm 0.87 in22.1 mm
07:45 PM 73.2°F22.9°C 62.4°F16.9°C 69% 3.0 mph WNW4.8 kmh WNW 8.0 mph12.9 kmh 29.84 in1010.5 mb 0.00 in0.0 mm 0.00 in0.0 mm 0.87 in22.1 mm
08:00 PM 72.7°F22.6°C 63.9°F17.7°C 74% 3.0 mph NW4.8 kmh NW 8.0 mph12.9 kmh 29.85 in1010.8 mb 0.00 in0.0 mm 0.00 in0.0 mm 0.87 in22.1 mm
08:15 PM 72.0°F22.2°C 64.4°F18.0°C 77% 1.0 mph NW1.6 kmh NW 4.0 mph6.4 kmh 29.85 in1010.8 mb 0.00 in0.0 mm 0.00 in0.0 mm 0.87 in22.1 mm
10:45 PM 69.1°F20.6°C 61.6°F16.4°C 77% 4.0 mph NW6.4 kmh NW 8.0 mph12.9 kmh 29.90 in1012.5 mb 0.00 in0.0 mm 0.00 in0.0 mm 0.87 in22.1 mm
11:30 PM 67.3°F19.6°C 61.2°F16.2°C 81% 1.0 mph NNW1.6 kmh NNW 4.0 mph6.4 kmh 29.91 in1012.9 mb 0.00 in0.0 mm 0.00 in0.0 mm 0.87 in22.1 mm
11:45 PM 66.6°F19.2°C 60.5°F15.8°C 81% 2.0 mph NNW3.2 kmh NNW 6.0 mph9.7 kmh 29.91 in1012.9 mb 0.00 in0.0 mm 0.00 in0.0 mm 0.87 in22.1 mm